Time;durP1;ratioP1;P1;durP2;ratioP2;P2;SDS_P1;SDS_P2;PMS_P1;PMS_P2;Temp;Humidity;BMP_temperature;BMP_pressure;BME280_temperature;BME280_humidity;BME280_pressure;Samples;Min_cycle;Max_cycle;Signal;HPM_P1;HPM_P2
2022/11/29 00:02:01;;;;;;;;;;;;;;;;;;5039220;28;19912;-77
2022/11/29 00:04:47;;;;;;;;;;;;;;;;;;5046472;28;19923;-77
2022/11/29 00:07:34;;;;;;;;;;;;;;;;;;5053492;28;19915;-77
2022/11/29 00:10:20;;;;;;;;;;;;;;;;;;5036853;28;19913;-77
2022/11/29 00:13:07;;;;;;;;;;;;;;;;;;5033622;28;19994;-77
2022/11/29 00:15:54;;;;;;;;;;;;;;;;;;5041527;28;19913;-77
2022/11/29 00:18:40;;;;;;;;;;;;;;;;;;5045089;28;20856;-77
2022/11/29 00:21:27;;;;;;;;;;;;;;;;;;5046034;28;19921;-77
2022/11/29 00:24:13;;;;;;;;;;;;;;;;;;5048602;28;19909;-77
2022/11/29 00:27:00;;;;;;;;;;;;;;;;;;5039248;28;19921;-77
2022/11/29 00:29:46;;;;;;;;;;;;;;;;;;5045796;28;20494;-77
2022/11/29 00:32:33;;;;;;;;;;;;;;;;;;5047566;28;19932;-77
2022/11/29 00:35:19;;;;;;;;;;;;;;;;;;5040043;28;19913;-76
2022/11/29 00:38:06;;;;;;;;;;;;;;;;;;5058723;28;20288;-77
2022/11/29 00:40:52;;;;;;;;;;;;;;;;;;5046989;28;19916;-76
2022/11/29 00:43:39;;;;;;;;;;;;;;;;;;5047031;28;19912;-76
2022/11/29 00:46:25;;;;;;;;;;;;;;;;;;5044504;28;19913;-76
2022/11/29 00:49:12;;;;;;;;;;;;;;;;;;5041364;28;19921;-76
2022/11/29 00:51:58;;;;;;;;;;;;;;;;;;5027702;28;19913;-76
2022/11/29 00:54:45;;;;;;;;;;;;;;;;;;5045154;28;19909;-76
2022/11/29 00:57:31;;;;;;;;;;;;;;;;;;5040336;28;19921;-75
2022/11/29 01:00:18;;;;;;;;;;;;;;;;;;5041532;28;19923;-76
2022/11/29 01:03:04;;;;;;;;;;;;;;;;;;5039828;28;19915;-76
2022/11/29 01:05:50;;;;;;;;;;;;;;;;;;5044216;28;19919;-76
2022/11/29 01:08:37;;;;;;;;;;;;;;;;;;5051369;28;20304;-76
2022/11/29 01:11:23;;;;;;;;;;;;;;;;;;5032825;28;19913;-76
2022/11/29 01:14:10;;;;;;;;;;;;;;;;;;5050648;28;19919;-76
2022/11/29 01:16:57;;;;;;;;;;;;;;;;;;5051053;28;19927;-77
2022/11/29 01:19:43;;;;;;;;;;;;;;;;;;5030084;28;19925;-76
2022/11/29 01:22:29;;;;;;;;;;;;;;;;;;5049936;28;19909;-76
2022/11/29 01:25:18;;;;;;;;;;;;;;;;;;5050244;28;20336;-76
2022/11/29 01:28:04;;;;;;;;;;;;;;;;;;5041992;28;19921;-77
2022/11/29 01:30:51;;;;;;;;;;;;;;;;;;5051812;28;19935;-77
2022/11/29 01:33:37;;;;;;;;;;;;;;;;;;5048870;28;19944;-78
2022/11/29 01:36:23;;;;;;;;;;;;;;;;;;5042179;28;19919;-77
2022/11/29 01:39:10;;;;;;;;;;;;;;;;;;5037876;28;19912;-79
2022/11/29 01:41:56;;;;;;;;;;;;;;;;;;5050730;28;20414;-77
2022/11/29 01:44:43;;;;;;;;;;;;;;;;;;5039558;28;19917;-77
2022/11/29 01:47:29;;;;;;;;;;;;;;;;;;5045032;28;20293;-78
2022/11/29 01:50:16;;;;;;;;;;;;;;;;;;5047463;28;19913;-78
2022/11/29 01:53:02;;;;;;;;;;;;;;;;;;5050795;28;19928;-78
2022/11/29 01:55:49;;;;;;;;;;;;;;;;;;5041378;28;19920;-78
2022/11/29 01:58:35;;;;;;;;;;;;;;;;;;5032967;28;19913;-78
2022/11/29 02:01:22;;;;;;;;;;;;;;;;;;5048258;28;19917;-78
2022/11/29 02:04:08;;;;;;;;;;;;;;;;;;5051289;28;19919;-77
2022/11/29 02:06:55;;;;;;;;;;;;;;;;;;5048304;28;19935;-78
2022/11/29 06:13:03;;;;;;;;;;;;;;;;;;5042366;23;19925;-78
2022/11/29 06:15:50;;;;;;;;;;;;;;;;;;5027574;28;19924;-78
2022/11/29 06:18:36;;;;;;;;;;;;;;;;;;5012664;28;20463;-76
2022/11/29 06:21:23;;;;;;;;;;;;;;;;;;5025875;28;19917;-76
2022/11/29 06:24:09;;;;;;;;;;;;;;;;;;5025677;28;20463;-77
2022/11/29 06:26:56;;;;;;;;;;;;;;;;;;5027116;28;19920;-76
2022/11/29 06:29:43;;;;;;;;;;;;;;;;;;5026655;28;19921;-76
2022/11/29 06:32:30;;;;;;;;;;;;;;;;;;5026769;28;20287;-77
2022/11/29 06:35:16;;;;;;;;;;;;;;;;;;5029007;28;19913;-78
2022/11/29 06:38:03;;;;;;;;;;;;;;;;;;5022648;28;19913;-77
2022/11/29 06:40:49;;;;;;;;;;;;;;;;;;5029236;28;20351;-76
2022/11/29 06:43:35;;;;;;;;;;;;;;;;;;5028292;28;19917;-77
2022/11/29 06:46:22;;;;;;;;;;;;;;;;;;5012412;28;20314;-76
2022/11/29 06:49:08;;;;;;;;;;;;;;;;;;5025512;28;19913;-77
2022/11/29 06:51:55;;;;;;;;;;;;;;;;;;5028495;28;19916;-76
2022/11/29 06:54:41;;;;;;;;;;;;;;;;;;5027743;28;19917;-76
2022/11/29 06:57:28;;;;;;;;;;;;;;;;;;5017632;28;19909;-77
2022/11/29 07:00:15;;;;;;;;;;;;;;;;;;5017391;28;20364;-76
2022/11/29 07:03:01;;;;;;;;;;;;;;;;;;5026013;28;19924;-77
2022/11/29 07:05:48;;;;;;;;;;;;;;;;;;5027345;28;19913;-76
2022/11/29 07:08:34;;;;;;;;;;;;;;;;;;5024248;28;19917;-77
2022/11/29 07:11:21;;;;;;;;;;;;;;;;;;5024050;28;19935;-77
2022/11/29 07:14:08;;;;;;;;;;;;;;;;;;5034319;28;19920;-76
2022/11/29 07:16:55;;;;;;;;;;;;;;;;;;5041787;28;19924;-77
2022/11/29 07:19:41;;;;;;;;;;;;;;;;;;5043699;28;19916;-78
2022/11/29 07:22:28;;;;;;;;;;;;;;;;;;5042991;28;20356;-76
2022/11/29 07:25:15;;;;;;;;;;;;;;;;;;5038330;28;19921;-76
2022/11/29 07:28:01;;;;;;;;;;;;;;;;;;5044097;28;19917;-76
2022/11/29 07:30:48;;;;;;;;;;;;;;;;;;5047248;28;20386;-78
2022/11/29 07:33:34;;;;;;;;;;;;;;;;;;5044593;28;19918;-75
2022/11/29 07:36:21;;;;;;;;;;;;;;;;;;5030771;28;20668;-77
2022/11/29 07:39:07;;;;;;;;;;;;;;;;;;5030217;28;19913;-78
2022/11/29 07:41:54;;;;;;;;;;;;;;;;;;5039582;28;20298;-77
2022/11/29 07:44:40;;;;;;;;;;;;;;;;;;5037876;28;20398;-77
2022/11/29 07:47:27;;;;;;;;;;;;;;;;;;5038853;28;19933;-78
2022/11/29 07:50:13;;;;;;;;;;;;;;;;;;5044501;28;19909;-77
2022/11/29 07:53:00;;;;;;;;;;;;;;;;;;5039631;28;19935;-77
2022/11/29 07:55:46;;;;;;;;;;;;;;;;;;5040841;28;19916;-78
2022/11/29 07:58:33;;;;;;;;;;;;;;;;;;5041162;28;19919;-77
2022/11/29 08:01:19;;;;;;;;;;;;;;;;;;5044815;28;19916;-76
2022/11/29 08:04:06;;;;;;;;;;;;;;;;;;5041632;28;19909;-77
2022/11/29 08:06:52;;;;;;;;;;;;;;;;;;5033939;28;19915;-77
2022/11/29 08:09:38;;;;;;;;;;;;;;;;;;5021553;28;20385;-76
2022/11/29 08:12:25;;;;;;;;;;;;;;;;;;5047214;28;19921;-78
2022/11/29 08:15:11;;;;;;;;;;;;;;;;;;5041584;28;19921;-77
2022/11/29 08:17:58;;;;;;;;;;;;;;;;;;5043698;28;19916;-78
2022/11/29 08:20:45;;;;;;;;;;;;;;;;;;5051301;28;19913;-77
2022/11/29 08:23:31;;;;;;;;;;;;;;;;;;5052378;28;19916;-77
2022/11/29 08:26:18;;;;;;;;;;;;;;;;;;5031494;28;19943;-77
2022/11/29 08:29:04;;;;;;;;;;;;;;;;;;5040155;28;19927;-76
2022/11/29 08:31:52;;;;;;;;;;;;;;;;;;5035155;28;20544;-77
2022/11/29 08:34:38;;;;;;;;;;;;;;;;;;5038329;28;19923;-77
2022/11/29 08:37:25;;;;;;;;;;;;;;;;;;5046323;28;19921;-76
2022/11/29 08:40:11;;;;;;;;;;;;;;;;;;5025310;28;20451;-75
2022/11/29 08:42:58;;;;;;;;;;;;;;;;;;5032999;28;19913;-77
2022/11/29 08:45:44;;;;;;;;;;;;;;;;;;5039013;28;19919;-76
2022/11/29 08:48:31;;;;;;;;;;;;;;;;;;5038753;28;20510;-78
2022/11/29 08:51:17;;;;;;;;;;;;;;;;;;5045295;28;19913;-77
2022/11/29 08:54:03;;;;;;;;;;;;;;;;;;5035992;28;19917;-77
2022/11/29 08:56:50;;;;;;;;;;;;;;;;;;5045989;28;20272;-78
2022/11/29 08:59:36;;;;;;;;;;;;;;;;;;5037138;28;19897;-77
2022/11/29 09:02:23;;;;;;;;;;;;;;;;;;5040146;28;20388;-78
2022/11/29 09:05:09;;;;;;;;;;;;;;;;;;5042387;28;19917;-76
2022/11/29 09:07:56;;;;;;;;;;;;;;;;;;5033926;28;19913;-78
2022/11/29 09:10:42;;;;;;;;;;;;;;;;;;5039884;28;19915;-78
2022/11/29 09:13:35;;;;;;;;;;;;;;;;;;5039695;28;19927;-77
2022/11/29 09:16:21;;;;;;;;;;;;;;;;;;5038434;28;20419;-78
2022/11/29 09:19:08;;;;;;;;;;;;;;;;;;5046325;28;20388;-79
2022/11/29 09:21:55;;;;;;;;;;;;;;;;;;5038981;28;19913;-76
2022/11/29 09:24:45;;;;;;;;;;;;;;;;;;5033114;28;19916;-77
2022/11/29 09:27:32;;;;;;;;;;;;;;;;;;5031393;28;19927;-78
2022/11/29 09:30:18;;;;;;;;;;;;;;;;;;5023561;28;19919;-77
2022/11/29 09:33:08;;;;;;;;;;;;;;;;;;5050292;28;19912;-79
2022/11/29 09:35:54;;;;;;;;;;;;;;;;;;5037222;28;19909;-77
2022/11/29 09:38:41;;;;;;;;;;;;;;;;;;5047725;28;19909;-78
2022/11/29 09:41:27;;;;;;;;;;;;;;;;;;5044154;28;19913;-78
2022/11/29 09:44:14;;;;;;;;;;;;;;;;;;5033228;28;19909;-78
2022/11/29 09:47:00;;;;;;;;;;;;;;;;;;5026482;28;19913;-78
2022/11/29 09:49:47;;;;;;;;;;;;;;;;;;5034740;28;19921;-79
2022/11/29 09:52:34;;;;;;;;;;;;;;;;;;5026129;28;20368;-78
2022/11/29 09:55:20;;;;;;;;;;;;;;;;;;5048078;28;19909;-78
2022/11/29 09:58:07;;;;;;;;;;;;;;;;;;5047765;28;19913;-76
2022/11/29 10:00:55;;;;;;;;;;;;;;;;;;5030625;28;20374;-79
2022/11/29 10:03:41;;;;;;;;;;;;;;;;;;5043587;28;20681;-77
2022/11/29 10:06:29;;;;;;;;;;;;;;;;;;5031514;28;19936;-79
2022/11/29 10:09:16;;;;;;;;;;;;;;;;;;5037958;28;19916;-76
2022/11/29 10:12:02;;;;;;;;;;;;;;;;;;5042636;28;19927;-79
2022/11/29 10:14:54;;;;;;;;;;;;;;;;;;5033111;28;19924;-78
2022/11/29 10:17:41;;;;;;;;;;;;;;;;;;5044029;28;19913;-77
2022/11/29 10:20:27;;;;;;;;;;;;;;;;;;5036609;28;19917;-78
2022/11/29 10:23:14;;;;;;;;;;;;;;;;;;5023324;28;19913;-78
2022/11/29 10:26:00;;;;;;;;;;;;;;;;;;5040967;28;19909;-78
2022/11/29 10:28:48;;;;;;;;;;;;;;;;;;5040554;28;19913;-77
2022/11/29 10:31:34;;;;;;;;;;;;;;;;;;5040252;28;19909;-77
2022/11/29 10:34:21;;;;;;;;;;;;;;;;;;5038305;28;19924;-78
2022/11/29 10:37:07;;;;;;;;;;;;;;;;;;5040958;28;19909;-77
2022/11/29 10:39:56;;;;;;;;;;;;;;;;;;5049054;28;19919;-78
2022/11/29 10:42:48;;;;;;;;;;;;;;;;;;5032202;28;19920;-77
2022/11/29 10:45:36;;;;;;;;;;;;;;;;;;5045889;28;19913;-76
2022/11/29 10:48:22;;;;;;;;;;;;;;;;;;5040282;28;19943;-77
2022/11/29 10:51:09;;;;;;;;;;;;;;;;;;5041710;28;19927;-78
2022/11/29 10:53:55;;;;;;;;;;;;;;;;;;5033637;28;19917;-77
2022/11/29 10:56:42;;;;;;;;;;;;;;;;;;5040498;28;20383;-77
2022/11/29 10:59:28;;;;;;;;;;;;;;;;;;5041427;28;19917;-76
2022/11/29 11:02:15;;;;;;;;;;;;;;;;;;5042330;28;19923;-76
2022/11/29 11:05:01;;;;;;;;;;;;;;;;;;5044015;28;19947;-78
2022/11/29 11:07:48;;;;;;;;;;;;;;;;;;5045954;28;19913;-77
2022/11/29 11:10:34;;;;;;;;;;;;;;;;;;5043990;28;19921;-77
2022/11/29 11:13:21;;;;;;;;;;;;;;;;;;5043483;28;19944;-78
2022/11/29 11:16:08;;;;;;;;;;;;;;;;;;5041723;28;19921;-76
2022/11/29 11:18:54;;;;;;;;;;;;;;;;;;5038086;28;19967;-77
2022/11/29 11:21:41;;;;;;;;;;;;;;;;;;5042710;28;19923;-79
2022/11/29 11:24:27;;;;;;;;;;;;;;;;;;5047144;28;19927;-79
2022/11/29 11:27:16;;;;;;;;;;;;;;;;;;5042872;28;20657;-77
2022/11/29 11:30:02;;;;;;;;;;;;;;;;;;5039364;28;19917;-77
2022/11/29 11:32:49;;;;;;;;;;;;;;;;;;5031043;28;19920;-76
2022/11/29 11:35:36;;;;;;;;;;;;;;;;;;5039982;28;19932;-76
2022/11/29 11:38:22;;;;;;;;;;;;;;;;;;5024833;28;19924;-78
2022/11/29 11:41:09;;;;;;;;;;;;;;;;;;5034103;28;19908;-77
2022/11/29 11:43:55;;;;;;;;;;;;;;;;;;5040223;28;19913;-79
2022/11/29 11:46:41;;;;;;;;;;;;;;;;;;5037147;28;19919;-76
2022/11/29 11:49:28;;;;;;;;;;;;;;;;;;5023854;28;21457;-76
2022/11/29 11:52:14;;;;;;;;;;;;;;;;;;5042862;28;19915;-78
2022/11/29 11:55:01;;;;;;;;;;;;;;;;;;5046064;28;19944;-79
2022/11/29 11:57:47;;;;;;;;;;;;;;;;;;5029116;28;19914;-79
2022/11/29 12:00:34;;;;;;;;;;;;;;;;;;5041514;28;19913;-79
2022/11/29 12:03:20;;;;;;;;;;;;;;;;;;5038041;28;20368;-77
2022/11/29 12:06:07;;;;;;;;;;;;;;;;;;5035614;28;19919;-79
2022/11/29 12:08:53;;;;;;;;;;;;;;;;;;5042680;28;19958;-77
2022/11/29 12:11:40;;;;;;;;;;;;;;;;;;5037820;28;19927;-77
2022/11/29 12:14:26;;;;;;;;;;;;;;;;;;5043464;28;19947;-78
2022/11/29 12:17:13;;;;;;;;;;;;;;;;;;5042486;28;19920;-77
2022/11/29 12:19:59;;;;;;;;;;;;;;;;;;5042169;28;19916;-77
2022/11/29 12:22:45;;;;;;;;;;;;;;;;;;5039984;28;20383;-77
2022/11/29 12:25:32;;;;;;;;;;;;;;;;;;5042551;28;19917;-78
2022/11/29 12:28:18;;;;;;;;;;;;;;;;;;5038419;28;20364;-78
2022/11/29 12:31:05;;;;;;;;;;;;;;;;;;5037253;28;19919;-77
2022/11/29 12:33:51;;;;;;;;;;;;;;;;;;5041014;28;19940;-79
2022/11/29 12:36:38;;;;;;;;;;;;;;;;;;5042503;28;19913;-77
2022/11/29 12:39:24;;;;;;;;;;;;;;;;;;5031803;28;19920;-78
2022/11/29 12:42:11;;;;;;;;;;;;;;;;;;5017216;28;19909;-76
2022/11/29 12:44:57;;;;;;;;;;;;;;;;;;5035077;28;19919;-76
2022/11/29 12:47:44;;;;;;;;;;;;;;;;;;5027566;28;19913;-78
2022/11/29 12:50:30;;;;;;;;;;;;;;;;;;5031642;28;20299;-77
2022/11/29 12:53:17;;;;;;;;;;;;;;;;;;5045751;28;19921;-77
2022/11/29 12:56:03;;;;;;;;;;;;;;;;;;5034465;28;19918;-78
2022/11/29 12:58:50;;;;;;;;;;;;;;;;;;5044040;28;19913;-76
2022/11/29 13:01:36;;;;;;;;;;;;;;;;;;5035965;28;20516;-77
2022/11/29 13:04:23;;;;;;;;;;;;;;;;;;5036421;28;19917;-77
2022/11/29 13:07:09;;;;;;;;;;;;;;;;;;5033965;28;19913;-78
2022/11/29 13:09:56;;;;;;;;;;;;;;;;;;5036365;28;19918;-76
2022/11/29 13:12:42;;;;;;;;;;;;;;;;;;5043241;28;19921;-78
2022/11/29 13:15:29;;;;;;;;;;;;;;;;;;5036054;28;19920;-78
2022/11/29 13:18:15;;;;;;;;;;;;;;;;;;5036164;28;19909;-76
2022/11/29 13:21:02;;;;;;;;;;;;;;;;;;5036048;28;19923;-77
2022/11/29 13:23:48;;;;;;;;;;;;;;;;;;5034859;28;19920;-77
2022/11/29 13:26:35;;;;;;;;;;;;;;;;;;5036908;28;19913;-78
2022/11/29 13:29:21;;;;;;;;;;;;;;;;;;5038676;28;19916;-77
2022/11/29 13:32:09;;;;;;;;;;;;;;;;;;5037561;28;19917;-76
2022/11/29 13:34:56;;;;;;;;;;;;;;;;;;5032584;28;19917;-77
2022/11/29 13:37:42;;;;;;;;;;;;;;;;;;5032511;28;19936;-77
2022/11/29 13:40:28;;;;;;;;;;;;;;;;;;5024681;28;19913;-78
2022/11/29 13:43:15;;;;;;;;;;;;;;;;;;5046255;28;19913;-77
2022/11/29 13:46:01;;;;;;;;;;;;;;;;;;5033831;28;19913;-77
2022/11/29 13:48:48;;;;;;;;;;;;;;;;;;5047393;28;20398;-78
2022/11/29 13:51:36;;;;;;;;;;;;;;;;;;5048400;28;19919;-79
2022/11/29 13:54:25;;;;;;;;;;;;;;;;;;5043905;28;19927;-77
2022/11/29 13:57:11;;;;;;;;;;;;;;;;;;5031321;28;19916;-77
2022/11/29 13:59:58;;;;;;;;;;;;;;;;;;5038709;28;19912;-77
2022/11/29 14:02:45;;;;;;;;;;;;;;;;;;5041991;28;19916;-77
2022/11/29 14:05:32;;;;;;;;;;;;;;;;;;5021382;28;20391;-78
2022/11/29 14:08:18;;;;;;;;;;;;;;;;;;5033725;28;19917;-79
2022/11/29 14:11:04;;;;;;;;;;;;;;;;;;5035344;28;19935;-77
2022/11/29 14:13:51;;;;;;;;;;;;;;;;;;5026169;28;19927;-78
2022/11/29 14:16:38;;;;;;;;;;;;;;;;;;5046817;28;19913;-78
2022/11/29 14:19:25;;;;;;;;;;;;;;;;;;5046565;28;19909;-77
2022/11/29 14:22:11;;;;;;;;;;;;;;;;;;5035565;28;19913;-78
2022/11/29 14:24:57;;;;;;;;;;;;;;;;;;5036465;28;20366;-76
2022/11/29 14:27:44;;;;;;;;;;;;;;;;;;5041731;28;19916;-77
2022/11/29 14:30:30;;;;;;;;;;;;;;;;;;5039117;28;20295;-77
2022/11/29 14:33:17;;;;;;;;;;;;;;;;;;5037431;28;19932;-78
2022/11/29 14:36:03;;;;;;;;;;;;;;;;;;5045727;28;20319;-78
2022/11/29 14:38:50;;;;;;;;;;;;;;;;;;5039723;28;19917;-78
2022/11/29 14:41:36;;;;;;;;;;;;;;;;;;5039409;28;19923;-79
2022/11/29 14:44:23;;;;;;;;;;;;;;;;;;5047917;28;19909;-79
2022/11/29 14:47:09;;;;;;;;;;;;;;;;;;5042657;28;19920;-80
2022/11/29 14:49:56;;;;;;;;;;;;;;;;;;5045294;28;19919;-78
2022/11/29 14:52:42;;;;;;;;;;;;;;;;;;5046477;28;19916;-77
2022/11/29 14:55:29;;;;;;;;;;;;;;;;;;5043703;28;20380;-78
2022/11/29 14:58:15;;;;;;;;;;;;;;;;;;5031088;28;20793;-77
2022/11/29 15:01:02;;;;;;;;;;;;;;;;;;5032842;28;19912;-79
2022/11/29 15:03:48;;;;;;;;;;;;;;;;;;5044818;28;20391;-78
2022/11/29 15:06:38;;;;;;;;;;;;;;;;;;5041231;28;19924;-78
2022/11/29 15:09:24;;;;;;;;;;;;;;;;;;5026918;28;19920;-79
2022/11/29 15:12:11;;;;;;;;;;;;;;;;;;5043803;28;19931;-79
2022/11/29 15:14:57;;;;;;;;;;;;;;;;;;5046151;28;19921;-78
2022/11/29 15:17:44;;;;;;;;;;;;;;;;;;5043942;28;19917;-78
2022/11/29 15:20:31;;;;;;;;;;;;;;;;;;5043746;28;19919;-78
2022/11/29 15:23:17;;;;;;;;;;;;;;;;;;5046874;28;19943;-80
2022/11/29 15:26:04;;;;;;;;;;;;;;;;;;5029954;28;20294;-78
2022/11/29 15:28:50;;;;;;;;;;;;;;;;;;5043592;28;19909;-78
2022/11/29 15:31:36;;;;;;;;;;;;;;;;;;5046186;28;19913;-78
2022/11/29 15:34:23;;;;;;;;;;;;;;;;;;5041270;28;20329;-78
2022/11/29 15:37:09;;;;;;;;;;;;;;;;;;5029279;28;19916;-80
2022/11/29 15:39:56;;;;;;;;;;;;;;;;;;5044775;28;19913;-77
2022/11/29 15:42:42;;;;;;;;;;;;;;;;;;5044055;28;19909;-78
2022/11/29 15:45:29;;;;;;;;;;;;;;;;;;5044399;28;20316;-77
2022/11/29 15:48:15;;;;;;;;;;;;;;;;;;5043073;28;19916;-77
2022/11/29 15:51:02;;;;;;;;;;;;;;;;;;5042226;28;19917;-77
2022/11/29 15:53:49;;;;;;;;;;;;;;;;;;5045395;28;19921;-77
2022/11/29 15:56:35;;;;;;;;;;;;;;;;;;5044490;28;19913;-77
2022/11/29 15:59:22;;;;;;;;;;;;;;;;;;5029680;28;19909;-78
2022/11/29 16:02:08;;;;;;;;;;;;;;;;;;5041765;28;19919;-77
2022/11/29 16:04:55;;;;;;;;;;;;;;;;;;5044295;28;19924;-76
2022/11/29 16:07:41;;;;;;;;;;;;;;;;;;5049924;28;19932;-78
2022/11/29 16:10:27;;;;;;;;;;;;;;;;;;5047663;28;19917;-78
2022/11/29 16:13:14;;;;;;;;;;;;;;;;;;5044625;28;19929;-78
2022/11/29 16:16:00;;;;;;;;;;;;;;;;;;5040827;28;19917;-79
2022/11/29 16:18:47;;;;;;;;;;;;;;;;;;5033939;28;19909;-79
2022/11/29 16:21:33;;;;;;;;;;;;;;;;;;5058762;28;19912;-78
2022/11/29 16:24:20;;;;;;;;;;;;;;;;;;5036746;28;19915;-79
2022/11/29 16:27:07;;;;;;;;;;;;;;;;;;5051857;28;19916;-78
2022/11/29 16:29:54;;;;;;;;;;;;;;;;;;5033533;28;19917;-78
2022/11/29 16:32:40;;;;;;;;;;;;;;;;;;5048470;28;20372;-79
2022/11/29 16:35:27;;;;;;;;;;;;;;;;;;5034871;28;19931;-78
2022/11/29 16:38:13;;;;;;;;;;;;;;;;;;5029358;28;19917;-79
2022/11/29 16:41:00;;;;;;;;;;;;;;;;;;5047674;28;19932;-77
2022/11/29 16:43:47;;;;;;;;;;;;;;;;;;5034795;28;19921;-78
2022/11/29 16:46:33;;;;;;;;;;;;;;;;;;5053409;28;19919;-78
2022/11/29 16:49:23;;;;;;;;;;;;;;;;;;5039674;28;19919;-78
2022/11/29 16:52:09;;;;;;;;;;;;;;;;;;5057219;28;19912;-80
2022/11/29 16:54:56;;;;;;;;;;;;;;;;;;5063651;28;20307;-78
2022/11/29 16:57:42;;;;;;;;;;;;;;;;;;5048675;28;19912;-78
2022/11/29 17:00:29;;;;;;;;;;;;;;;;;;5052829;28;19956;-78
2022/11/29 17:03:16;;;;;;;;;;;;;;;;;;5048526;28;19919;-79
2022/11/29 17:06:02;;;;;;;;;;;;;;;;;;5045836;28;19915;-79
2022/11/29 17:08:49;;;;;;;;;;;;;;;;;;5048519;28;20304;-79
2022/11/29 17:11:35;;;;;;;;;;;;;;;;;;5034528;28;19923;-78
2022/11/29 17:14:22;;;;;;;;;;;;;;;;;;5035565;28;19920;-80
2022/11/29 17:17:08;;;;;;;;;;;;;;;;;;5037375;28;20275;-79
2022/11/29 17:19:55;;;;;;;;;;;;;;;;;;5046736;28;19913;-78
2022/11/29 17:22:41;;;;;;;;;;;;;;;;;;5049295;28;19913;-80
2022/11/29 17:25:28;;;;;;;;;;;;;;;;;;5038444;28;19917;-80
2022/11/29 17:28:14;;;;;;;;;;;;;;;;;;5032603;28;19914;-79
2022/11/29 17:31:01;;;;;;;;;;;;;;;;;;5034821;28;19917;-78
2022/11/29 17:33:47;;;;;;;;;;;;;;;;;;5047172;28;19921;-78
2022/11/29 17:36:34;;;;;;;;;;;;;;;;;;5044234;28;20382;-78
2022/11/29 17:39:21;;;;;;;;;;;;;;;;;;5049606;28;19913;-79
2022/11/29 17:42:08;;;;;;;;;;;;;;;;;;5029873;28;19913;-78
2022/11/29 17:44:55;;;;;;;;;;;;;;;;;;5044976;28;19917;-77
2022/11/29 17:47:41;;;;;;;;;;;;;;;;;;5043853;28;19924;-79
2022/11/29 17:50:28;;;;;;;;;;;;;;;;;;5046737;28;20760;-78
2022/11/29 17:53:14;;;;;;;;;;;;;;;;;;5046168;28;19923;-78
2022/11/29 17:56:00;;;;;;;;;;;;;;;;;;5033612;28;19936;-77
2022/11/29 17:58:47;;;;;;;;;;;;;;;;;;5031862;28;19912;-77
2022/11/29 18:01:34;;;;;;;;;;;;;;;;;;5033143;28;19923;-78
2022/11/29 18:04:21;;;;;;;;;;;;;;;;;;5044354;28;19918;-77
2022/11/29 18:07:07;;;;;;;;;;;;;;;;;;5045875;28;19917;-78
2022/11/29 18:09:54;;;;;;;;;;;;;;;;;;5043220;28;20295;-78
2022/11/29 18:12:40;;;;;;;;;;;;;;;;;;5028937;28;19925;-78
2022/11/29 18:15:26;;;;;;;;;;;;;;;;;;5040288;28;19943;-80
2022/11/29 18:18:13;;;;;;;;;;;;;;;;;;5047490;28;19918;-80
2022/11/29 18:20:59;;;;;;;;;;;;;;;;;;5040949;28;19908;-80
2022/11/29 18:23:46;;;;;;;;;;;;;;;;;;5027985;28;19915;-80
2022/11/29 18:26:32;;;;;;;;;;;;;;;;;;5032161;28;20284;-80
2022/11/29 18:29:19;;;;;;;;;;;;;;;;;;5043682;28;19920;-80
2022/11/29 18:32:06;;;;;;;;;;;;;;;;;;5046922;28;19913;-80
2022/11/29 18:34:52;;;;;;;;;;;;;;;;;;5042653;28;19920;-79
2022/11/29 18:37:38;;;;;;;;;;;;;;;;;;5032848;28;19919;-79
2022/11/29 18:40:25;;;;;;;;;;;;;;;;;;5044710;28;19913;-80
2022/11/29 18:43:11;;;;;;;;;;;;;;;;;;5039492;28;19913;-80
2022/11/29 18:45:58;;;;;;;;;;;;;;;;;;5042689;28;19921;-80
2022/11/29 18:48:44;;;;;;;;;;;;;;;;;;5043362;28;20307;-79
2022/11/29 18:51:34;;;;;;;;;;;;;;;;;;5042736;28;19917;-80
2022/11/29 18:54:20;;;;;;;;;;;;;;;;;;5043254;28;19931;-81
2022/11/29 18:57:07;;;;;;;;;;;;;;;;;;5044348;28;20361;-78
2022/11/29 18:59:59;;;;;;;;;;;;;;;;;;5044879;28;19931;-77
2022/11/29 19:02:59;;;;;;;;;;;;;;;;;;5025954;28;19917;-80
2022/11/29 19:05:48;;;;;;;;;;;;;;;;;;5027439;28;19920;-80
2022/11/29 19:08:46;;;;;;;;;;;;;;;;;;5045364;28;19917;-79
2022/11/29 19:11:32;;;;;;;;;;;;;;;;;;5026510;28;19925;-80
2022/11/29 19:14:37;;;;;;;;;;;;;;;;;;;;;
2022/11/29 19:17:24;;;;;;;;;;;;;;;;;;5041269;28;19917;-79
2022/11/29 19:20:13;;;;;;;;;;;;;;;;;;5028518;28;20374;-79
2022/11/29 19:23:02;;;;;;;;;;;;;;;;;;5038176;28;19913;-80
2022/11/29 19:25:49;;;;;;;;;;;;;;;;;;5034959;28;19912;-78
2022/11/29 19:28:36;;;;;;;;;;;;;;;;;;5028364;28;19912;-79
2022/11/29 19:31:25;;;;;;;;;;;;;;;;;;5032369;28;19929;-79
2022/11/29 19:34:27;;;;;;;;;;;;;;;;;;5039674;28;19933;-81
2022/11/29 19:37:17;;;;;;;;;;;;;;;;;;5030207;28;19923;-81
2022/11/29 19:40:03;;;;;;;;;;;;;;;;;;5029865;28;19917;-80
2022/11/29 19:42:50;;;;;;;;;;;;;;;;;;5026967;28;19935;-80
2022/11/29 19:45:36;;;;;;;;;;;;;;;;;;5043716;28;19916;-82
2022/11/29 19:48:30;;;;;;;;;;;;;;;;;;5031810;28;19923;-80
2022/11/29 19:51:17;;;;;;;;;;;;;;;;;;5032627;28;19928;-82
2022/11/29 19:54:06;;;;;;;;;;;;;;;;;;5045409;28;20402;-83
2022/11/29 19:57:12;;;;;;;;;;;;;;;;;;5029651;28;19920;-82
2022/11/29 19:59:59;;;;;;;;;;;;;;;;;;5041048;28;19923;-82
2022/11/29 20:02:49;;;;;;;;;;;;;;;;;;5027133;28;19917;-84
2022/11/29 20:05:44;;;;;;;;;;;;;;;;;;5039037;28;20238;-83
2022/11/29 20:08:30;;;;;;;;;;;;;;;;;;5032441;28;19917;-81
2022/11/29 20:11:17;;;;;;;;;;;;;;;;;;5033608;28;19920;-81
2022/11/29 20:14:04;;;;;;;;;;;;;;;;;;5038166;28;19939;-80
2022/11/29 20:16:50;;;;;;;;;;;;;;;;;;5040266;28;19923;-81
2022/11/29 20:19:37;;;;;;;;;;;;;;;;;;5039394;28;19917;-82
2022/11/29 20:22:23;;;;;;;;;;;;;;;;;;5038522;28;20544;-83
2022/11/29 20:25:12;;;;;;;;;;;;;;;;;;5041866;28;19916;-82
2022/11/29 20:27:58;;;;;;;;;;;;;;;;;;5045219;28;19913;-82
2022/11/29 20:30:45;;;;;;;;;;;;;;;;;;5042063;28;19909;-81
2022/11/29 20:33:31;;;;;;;;;;;;;;;;;;5025575;28;19932;-82
2022/11/29 20:36:18;;;;;;;;;;;;;;;;;;5042442;28;19909;-78
2022/11/29 20:39:07;;;;;;;;;;;;;;;;;;5025682;28;20383;-79
2022/11/29 20:41:53;;;;;;;;;;;;;;;;;;5031089;28;19917;-78
2022/11/29 20:44:40;;;;;;;;;;;;;;;;;;5038241;28;19917;-76
2022/11/29 20:47:26;;;;;;;;;;;;;;;;;;5038601;28;19912;-78
2022/11/29 20:50:15;;;;;;;;;;;;;;;;;;5039894;28;19919;-78
2022/11/29 20:53:04;;;;;;;;;;;;;;;;;;5030792;28;20335;-78
2022/11/29 20:55:51;;;;;;;;;;;;;;;;;;5036252;28;19924;-79
2022/11/29 20:58:37;;;;;;;;;;;;;;;;;;5036367;28;20303;-77
2022/11/29 21:01:26;;;;;;;;;;;;;;;;;;5039965;28;19919;-78
2022/11/29 21:04:13;;;;;;;;;;;;;;;;;;5033301;28;20380;-77
2022/11/29 21:06:59;;;;;;;;;;;;;;;;;;5020617;28;19921;-79
2022/11/29 21:09:46;;;;;;;;;;;;;;;;;;5044134;28;19924;-79
2022/11/29 21:12:32;;;;;;;;;;;;;;;;;;5012630;28;19926;-78
2022/11/29 21:15:19;;;;;;;;;;;;;;;;;;5019741;28;19932;-77
2022/11/29 21:18:08;;;;;;;;;;;;;;;;;;5023664;28;19952;-78
2022/11/29 21:20:55;;;;;;;;;;;;;;;;;;5026544;28;19913;-77
2022/11/29 21:23:41;;;;;;;;;;;;;;;;;;5020879;28;20419;-77
2022/11/29 21:26:28;;;;;;;;;;;;;;;;;;5027505;28;19913;-78
2022/11/29 21:29:14;;;;;;;;;;;;;;;;;;5023071;28;19924;-79
2022/11/29 21:32:01;;;;;;;;;;;;;;;;;;5027073;28;20352;-78
2022/11/29 21:34:48;;;;;;;;;;;;;;;;;;5018774;28;19925;-79
2022/11/29 21:37:36;;;;;;;;;;;;;;;;;;5024433;28;19913;-79
2022/11/29 21:40:23;;;;;;;;;;;;;;;;;;5025101;28;19913;-78
2022/11/29 21:43:09;;;;;;;;;;;;;;;;;;5024601;28;19913;-77
2022/11/29 21:45:56;;;;;;;;;;;;;;;;;;5025152;28;19928;-77
2022/11/29 21:48:43;;;;;;;;;;;;;;;;;;5025297;28;20310;-77
2022/11/29 21:51:29;;;;;;;;;;;;;;;;;;5021810;28;19913;-77
2022/11/29 21:54:16;;;;;;;;;;;;;;;;;;5024031;28;20327;-78
2022/11/29 21:57:02;;;;;;;;;;;;;;;;;;5014594;28;19918;-78
2022/11/29 21:59:49;;;;;;;;;;;;;;;;;;5022429;28;19917;-78
2022/11/29 22:02:35;;;;;;;;;;;;;;;;;;5028310;28;20268;-77
2022/11/29 22:05:22;;;;;;;;;;;;;;;;;;5025935;28;19919;-78
2022/11/29 22:08:08;;;;;;;;;;;;;;;;;;5028063;28;19923;-79
2022/11/29 22:10:55;;;;;;;;;;;;;;;;;;5026869;28;19917;-78
2022/11/29 22:14:27;;;;;;;;;;;;;;;;;;5030144;28;19966;-76
2022/11/29 22:16:48;;;;;;;;;;;;;;;;;;5025649;28;19918;-76
2022/11/29 22:19:38;;;;;;;;;;;;;;;;;;5020639;28;19932;-79
2022/11/29 22:22:24;;;;;;;;;;;;;;;;;;5016857;28;19924;-76
2022/11/29 22:25:11;;;;;;;;;;;;;;;;;;5017798;28;19923;-77
2022/11/29 22:27:57;;;;;;;;;;;;;;;;;;5025541;28;20288;-76
2022/11/29 22:30:44;;;;;;;;;;;;;;;;;;5020083;28;19924;-77
2022/11/29 22:33:30;;;;;;;;;;;;;;;;;;5024036;28;19921;-77
2022/11/29 22:36:17;;;;;;;;;;;;;;;;;;5025347;28;19921;-76
2022/11/29 22:39:03;;;;;;;;;;;;;;;;;;5023235;28;20299;-78
2022/11/29 22:41:50;;;;;;;;;;;;;;;;;;5018070;28;19926;-78
2022/11/29 22:44:36;;;;;;;;;;;;;;;;;;5014326;28;19918;-77
2022/11/29 22:47:23;;;;;;;;;;;;;;;;;;5019283;28;19917;-78
2022/11/29 22:50:09;;;;;;;;;;;;;;;;;;5028102;28;19909;-77
2022/11/29 22:52:56;;;;;;;;;;;;;;;;;;5016660;28;19928;-78
2022/11/29 22:55:42;;;;;;;;;;;;;;;;;;5017950;28;20377;-79
2022/11/29 22:58:29;;;;;;;;;;;;;;;;;;5018040;28;20312;-79
2022/11/29 23:01:15;;;;;;;;;;;;;;;;;;5025288;28;19924;-77
2022/11/29 23:04:02;;;;;;;;;;;;;;;;;;5020240;28;19918;-77